sensor_id;sensor_type;location;lat;lon;timestamp;temperature;humidity
73141;SHT31;61339;50.558;4.696;2023-07-31T00:00:10;17.39;83.65
73141;SHT31;61339;50.558;4.696;2023-07-31T00:02:36;17.39;83.61
73141;SHT31;61339;50.558;4.696;2023-07-31T00:05:02;17.40;83.49
73141;SHT31;61339;50.558;4.696;2023-07-31T00:07:28;17.39;83.27
73141;SHT31;61339;50.558;4.696;2023-07-31T00:09:53;17.39;83.19
73141;SHT31;61339;50.558;4.696;2023-07-31T00:12:19;17.37;83.23
73141;SHT31;61339;50.558;4.696;2023-07-31T00:14:45;17.39;83.02
73141;SHT31;61339;50.558;4.696;2023-07-31T00:17:11;17.41;83.16
73141;SHT31;61339;50.558;4.696;2023-07-31T00:19:36;17.40;83.14
73141;SHT31;61339;50.558;4.696;2023-07-31T00:22:02;17.41;83.11
73141;SHT31;61339;50.558;4.696;2023-07-31T00:24:27;17.40;83.00
73141;SHT31;61339;50.558;4.696;2023-07-31T00:26:52;17.44;82.95
73141;SHT31;61339;50.558;4.696;2023-07-31T00:29:18;17.44;82.86
73141;SHT31;61339;50.558;4.696;2023-07-31T00:31:43;17.41;82.98
73141;SHT31;61339;50.558;4.696;2023-07-31T00:34:09;17.44;82.97
73141;SHT31;61339;50.558;4.696;2023-07-31T00:36:34;17.43;83.07
73141;SHT31;61339;50.558;4.696;2023-07-31T00:39:00;17.43;83.19
73141;SHT31;61339;50.558;4.696;2023-07-31T00:41:25;17.40;83.29
73141;SHT31;61339;50.558;4.696;2023-07-31T00:43:51;17.41;83.23
73141;SHT31;61339;50.558;4.696;2023-07-31T00:46:16;17.44;83.35
73141;SHT31;61339;50.558;4.696;2023-07-31T00:48:42;17.43;83.26
73141;SHT31;61339;50.558;4.696;2023-07-31T00:51:08;17.44;83.03
73141;SHT31;61339;50.558;4.696;2023-07-31T00:53:34;17.43;83.12
73141;SHT31;61339;50.558;4.696;2023-07-31T00:55:59;17.43;83.07
73141;SHT31;61339;50.558;4.696;2023-07-31T00:58:25;17.44;83.02
73141;SHT31;61339;50.558;4.696;2023-07-31T01:00:50;17.44;83.09
73141;SHT31;61339;50.558;4.696;2023-07-31T01:03:16;17.44;83.07
73141;SHT31;61339;50.558;4.696;2023-07-31T01:08:33;17.44;83.11
73141;SHT31;61339;50.558;4.696;2023-07-31T01:11:09;17.41;83.09
73141;SHT31;61339;50.558;4.696;2023-07-31T01:13:36;17.47;83.10
73141;SHT31;61339;50.558;4.696;2023-07-31T01:16:02;17.47;82.99
73141;SHT31;61339;50.558;4.696;2023-07-31T01:18:27;17.46;83.10
73141;SHT31;61339;50.558;4.696;2023-07-31T01:21:01;17.48;82.97
73141;SHT31;61339;50.558;4.696;2023-07-31T01:26:05;17.46;83.13
73141;SHT31;61339;50.558;4.696;2023-07-31T01:31:02;17.46;83.16
73141;SHT31;61339;50.558;4.696;2023-07-31T01:33:28;17.47;83.24
73141;SHT31;61339;50.558;4.696;2023-07-31T01:35:54;17.46;83.27
73141;SHT31;61339;50.558;4.696;2023-07-31T01:38:21;17.44;83.29
73141;SHT31;61339;50.558;4.696;2023-07-31T01:40:51;17.44;83.49
73141;SHT31;61339;50.558;4.696;2023-07-31T01:43:21;17.40;83.89
73141;SHT31;61339;50.558;4.696;2023-07-31T01:45:50;17.41;84.23
73141;SHT31;61339;50.558;4.696;2023-07-31T01:48:19;17.39;84.23
73141;SHT31;61339;50.558;4.696;2023-07-31T01:50:46;17.37;84.33
73141;SHT31;61339;50.558;4.696;2023-07-31T01:53:11;17.34;84.21
73141;SHT31;61339;50.558;4.696;2023-07-31T01:55:38;17.31;84.24
73141;SHT31;61339;50.558;4.696;2023-07-31T01:58:04;17.30;84.08
73141;SHT31;61339;50.558;4.696;2023-07-31T02:00:29;17.29;84.23
73141;SHT31;61339;50.558;4.696;2023-07-31T02:02:54;17.29;84.07
73141;SHT31;61339;50.558;4.696;2023-07-31T02:05:20;17.26;84.07
73141;SHT31;61339;50.558;4.696;2023-07-31T02:07:45;17.24;84.10
73141;SHT31;61339;50.558;4.696;2023-07-31T02:10:11;17.22;84.20
73141;SHT31;61339;50.558;4.696;2023-07-31T02:12:36;17.23;84.30
73141;SHT31;61339;50.558;4.696;2023-07-31T02:15:02;17.22;84.30
73141;SHT31;61339;50.558;4.696;2023-07-31T02:17:27;17.19;84.12
73141;SHT31;61339;50.558;4.696;2023-07-31T02:19:53;17.16;84.36
73141;SHT31;61339;50.558;4.696;2023-07-31T02:22:19;17.19;84.33
73141;SHT31;61339;50.558;4.696;2023-07-31T02:24:44;17.15;84.48
73141;SHT31;61339;50.558;4.696;2023-07-31T02:27:10;17.13;84.34
73141;SHT31;61339;50.558;4.696;2023-07-31T02:29:35;17.15;84.55
73141;SHT31;61339;50.558;4.696;2023-07-31T02:32:01;17.10;84.41
73141;SHT31;61339;50.558;4.696;2023-07-31T02:34:26;17.12;84.42
73141;SHT31;61339;50.558;4.696;2023-07-31T02:36:51;17.13;84.41
73141;SHT31;61339;50.558;4.696;2023-07-31T02:39:17;17.15;84.53
73141;SHT31;61339;50.558;4.696;2023-07-31T02:41:42;17.10;84.40
73141;SHT31;61339;50.558;4.696;2023-07-31T02:44:07;17.09;84.62
73141;SHT31;61339;50.558;4.696;2023-07-31T02:46:33;17.08;84.57
73141;SHT31;61339;50.558;4.696;2023-07-31T02:48:58;17.03;84.76
73141;SHT31;61339;50.558;4.696;2023-07-31T02:51:24;17.00;84.86
73141;SHT31;61339;50.558;4.696;2023-07-31T02:53:49;16.96;84.94
73141;SHT31;61339;50.558;4.696;2023-07-31T02:56:15;16.95;85.04
73141;SHT31;61339;50.558;4.696;2023-07-31T02:58:40;16.92;85.14
73141;SHT31;61339;50.558;4.696;2023-07-31T03:01:06;16.90;85.16
73141;SHT31;61339;50.558;4.696;2023-07-31T03:03:31;16.93;85.07
73141;SHT31;61339;50.558;4.696;2023-07-31T03:05:56;16.93;85.09
73141;SHT31;61339;50.558;4.696;2023-07-31T03:08:23;16.92;85.17
73141;SHT31;61339;50.558;4.696;2023-07-31T03:10:48;16.92;85.20
73141;SHT31;61339;50.558;4.696;2023-07-31T03:13:14;16.90;85.20
73141;SHT31;61339;50.558;4.696;2023-07-31T03:15:42;16.92;85.15
73141;SHT31;61339;50.558;4.696;2023-07-31T03:18:07;16.92;85.02
73141;SHT31;61339;50.558;4.696;2023-07-31T03:20:33;16.98;84.93
73141;SHT31;61339;50.558;4.696;2023-07-31T03:22:58;17.00;84.88
73141;SHT31;61339;50.558;4.696;2023-07-31T03:25:23;17.00;84.79
73141;SHT31;61339;50.558;4.696;2023-07-31T03:27:49;17.05;84.86
73141;SHT31;61339;50.558;4.696;2023-07-31T03:30:14;17.05;84.75
73141;SHT31;61339;50.558;4.696;2023-07-31T03:32:39;17.06;84.73
73141;SHT31;61339;50.558;4.696;2023-07-31T03:35:05;17.08;84.68
73141;SHT31;61339;50.558;4.696;2023-07-31T03:37:31;17.09;84.77
73141;SHT31;61339;50.558;4.696;2023-07-31T03:39:56;17.08;84.73
73141;SHT31;61339;50.558;4.696;2023-07-31T03:42:22;17.06;84.77
73141;SHT31;61339;50.558;4.696;2023-07-31T03:44:48;17.06;84.83
73141;SHT31;61339;50.558;4.696;2023-07-31T03:47:13;17.06;84.82
73141;SHT31;61339;50.558;4.696;2023-07-31T03:49:38;17.09;84.78
73141;SHT31;61339;50.558;4.696;2023-07-31T03:52:04;17.09;84.64
73141;SHT31;61339;50.558;4.696;2023-07-31T03:54:30;17.09;84.64
73141;SHT31;61339;50.558;4.696;2023-07-31T03:56:55;17.09;84.81
73141;SHT31;61339;50.558;4.696;2023-07-31T03:59:20;17.08;84.66
73141;SHT31;61339;50.558;4.696;2023-07-31T04:01:46;17.06;84.75
73141;SHT31;61339;50.558;4.696;2023-07-31T04:04:11;17.08;84.41
73141;SHT31;61339;50.558;4.696;2023-07-31T04:06:37;17.09;84.28
73141;SHT31;61339;50.558;4.696;2023-07-31T04:09:02;17.10;84.20
73141;SHT31;61339;50.558;4.696;2023-07-31T04:11:28;17.10;83.96
73141;SHT31;61339;50.558;4.696;2023-07-31T04:13:53;17.10;83.84
73141;SHT31;61339;50.558;4.696;2023-07-31T04:16:19;17.09;83.75
73141;SHT31;61339;50.558;4.696;2023-07-31T04:18:44;17.10;83.80
73141;SHT31;61339;50.558;4.696;2023-07-31T04:21:10;17.12;83.51
73141;SHT31;61339;50.558;4.696;2023-07-31T04:23:35;17.10;83.30
73141;SHT31;61339;50.558;4.696;2023-07-31T04:26:00;17.10;83.67
73141;SHT31;61339;50.558;4.696;2023-07-31T04:28:26;17.10;83.85
73141;SHT31;61339;50.558;4.696;2023-07-31T04:30:52;17.12;83.88
73141;SHT31;61339;50.558;4.696;2023-07-31T04:33:18;17.10;84.11
73141;SHT31;61339;50.558;4.696;2023-07-31T04:35:51;17.10;84.15
73141;SHT31;61339;50.558;4.696;2023-07-31T04:38:18;17.08;84.09
73141;SHT31;61339;50.558;4.696;2023-07-31T04:40:43;17.09;84.23
73141;SHT31;61339;50.558;4.696;2023-07-31T04:43:09;17.05;84.19
73141;SHT31;61339;50.558;4.696;2023-07-31T04:45:34;17.06;84.19
73141;SHT31;61339;50.558;4.696;2023-07-31T04:48:00;17.10;83.84
73141;SHT31;61339;50.558;4.696;2023-07-31T04:50:25;17.08;83.79
73141;SHT31;61339;50.558;4.696;2023-07-31T04:52:51;17.09;83.93
73141;SHT31;61339;50.558;4.696;2023-07-31T04:55:16;17.08;83.96
73141;SHT31;61339;50.558;4.696;2023-07-31T04:57:41;17.08;83.90
73141;SHT31;61339;50.558;4.696;2023-07-31T05:00:07;17.09;83.88
73141;SHT31;61339;50.558;4.696;2023-07-31T05:02:33;17.08;83.72
73141;SHT31;61339;50.558;4.696;2023-07-31T05:04:58;17.06;83.56
73141;SHT31;61339;50.558;4.696;2023-07-31T05:07:24;17.03;83.54
73141;SHT31;61339;50.558;4.696;2023-07-31T05:09:49;17.08;83.81
73141;SHT31;61339;50.558;4.696;2023-07-31T05:12:14;17.02;84.25
73141;SHT31;61339;50.558;4.696;2023-07-31T05:14:40;17.02;84.57
73141;SHT31;61339;50.558;4.696;2023-07-31T05:17:05;17.00;84.56
73141;SHT31;61339;50.558;4.696;2023-07-31T05:19:31;17.02;84.45
73141;SHT31;61339;50.558;4.696;2023-07-31T05:21:56;17.03;84.31
73141;SHT31;61339;50.558;4.696;2023-07-31T05:24:21;17.03;84.66
73141;SHT31;61339;50.558;4.696;2023-07-31T05:26:47;16.99;85.19
73141;SHT31;61339;50.558;4.696;2023-07-31T05:29:12;16.96;85.55
73141;SHT31;61339;50.558;4.696;2023-07-31T05:31:38;16.95;85.52
73141;SHT31;61339;50.558;4.696;2023-07-31T05:34:04;16.92;85.51
73141;SHT31;61339;50.558;4.696;2023-07-31T05:36:29;16.92;85.56
73141;SHT31;61339;50.558;4.696;2023-07-31T05:38:54;16.90;85.66
73141;SHT31;61339;50.558;4.696;2023-07-31T05:41:20;16.93;85.16
73141;SHT31;61339;50.558;4.696;2023-07-31T05:43:45;16.93;85.40
73141;SHT31;61339;50.558;4.696;2023-07-31T05:46:11;16.95;85.15
73141;SHT31;61339;50.558;4.696;2023-07-31T05:48:37;16.98;84.94
73141;SHT31;61339;50.558;4.696;2023-07-31T05:51:03;17.02;85.29
73141;SHT31;61339;50.558;4.696;2023-07-31T05:53:28;17.00;84.81
73141;SHT31;61339;50.558;4.696;2023-07-31T05:55:53;17.05;84.67
73141;SHT31;61339;50.558;4.696;2023-07-31T05:58:19;17.10;84.59
73141;SHT31;61339;50.558;4.696;2023-07-31T06:00:44;17.12;84.43
73141;SHT31;61339;50.558;4.696;2023-07-31T06:03:10;17.15;84.43
73141;SHT31;61339;50.558;4.696;2023-07-31T06:05:35;17.13;84.42
73141;SHT31;61339;50.558;4.696;2023-07-31T06:08:01;17.10;84.28
73141;SHT31;61339;50.558;4.696;2023-07-31T06:10:26;17.09;84.37
73141;SHT31;61339;50.558;4.696;2023-07-31T06:12:52;17.05;83.97
73141;SHT31;61339;50.558;4.696;2023-07-31T06:15:17;17.00;84.15
73141;SHT31;61339;50.558;4.696;2023-07-31T06:17:44;17.02;84.05
73141;SHT31;61339;50.558;4.696;2023-07-31T06:20:10;17.00;84.30
73141;SHT31;61339;50.558;4.696;2023-07-31T06:22:35;17.00;84.23
73141;SHT31;61339;50.558;4.696;2023-07-31T06:25:01;17.00;84.33
73141;SHT31;61339;50.558;4.696;2023-07-31T06:27:26;17.03;84.25
73141;SHT31;61339;50.558;4.696;2023-07-31T06:29:52;17.03;84.31
73141;SHT31;61339;50.558;4.696;2023-07-31T06:32:17;17.00;84.24
73141;SHT31;61339;50.558;4.696;2023-07-31T06:34:43;17.00;84.77
73141;SHT31;61339;50.558;4.696;2023-07-31T06:37:08;16.99;84.67
73141;SHT31;61339;50.558;4.696;2023-07-31T06:39:33;16.98;84.63
73141;SHT31;61339;50.558;4.696;2023-07-31T06:41:59;16.96;84.51
73141;SHT31;61339;50.558;4.696;2023-07-31T06:44:24;16.93;84.55
73141;SHT31;61339;50.558;4.696;2023-07-31T06:46:50;16.93;84.35
73141;SHT31;61339;50.558;4.696;2023-07-31T06:49:15;16.95;84.04
73141;SHT31;61339;50.558;4.696;2023-07-31T06:51:41;16.98;83.97
73141;SHT31;61339;50.558;4.696;2023-07-31T06:54:08;16.99;83.81
73141;SHT31;61339;50.558;4.696;2023-07-31T06:56:34;17.06;83.40
73141;SHT31;61339;50.558;4.696;2023-07-31T06:58:59;17.10;83.23
73141;SHT31;61339;50.558;4.696;2023-07-31T07:01:24;17.13;83.07
73141;SHT31;61339;50.558;4.696;2023-07-31T07:03:51;17.16;83.06
73141;SHT31;61339;50.558;4.696;2023-07-31T07:06:17;17.17;82.81
73141;SHT31;61339;50.558;4.696;2023-07-31T07:08:43;17.13;82.59
73141;SHT31;61339;50.558;4.696;2023-07-31T07:11:08;17.17;82.27
73141;SHT31;61339;50.558;4.696;2023-07-31T07:13:34;17.26;82.04
73141;SHT31;61339;50.558;4.696;2023-07-31T07:15:59;17.34;81.48
73141;SHT31;61339;50.558;4.696;2023-07-31T07:18:25;17.43;81.16
73141;SHT31;61339;50.558;4.696;2023-07-31T07:20:51;17.58;80.64
73141;SHT31;61339;50.558;4.696;2023-07-31T07:23:17;17.68;80.32
73141;SHT31;61339;50.558;4.696;2023-07-31T07:25:43;17.73;79.80
73141;SHT31;61339;50.558;4.696;2023-07-31T07:28:09;17.67;79.92
73141;SHT31;61339;50.558;4.696;2023-07-31T07:30:35;17.66;79.68
73141;SHT31;61339;50.558;4.696;2023-07-31T07:33:01;17.64;79.78
73141;SHT31;61339;50.558;4.696;2023-07-31T07:35:26;17.60;79.94
73141;SHT31;61339;50.558;4.696;2023-07-31T07:37:51;17.58;79.82
73141;SHT31;61339;50.558;4.696;2023-07-31T07:40:17;17.54;79.92
73141;SHT31;61339;50.558;4.696;2023-07-31T07:42:42;17.53;79.74
73141;SHT31;61339;50.558;4.696;2023-07-31T07:45:08;17.50;79.92
73141;SHT31;61339;50.558;4.696;2023-07-31T07:47:34;17.50;80.03
73141;SHT31;61339;50.558;4.696;2023-07-31T07:49:59;17.47;79.56
73141;SHT31;61339;50.558;4.696;2023-07-31T07:52:25;17.55;80.67
73141;SHT31;61339;50.558;4.696;2023-07-31T07:54:50;17.58;82.19
73141;SHT31;61339;50.558;4.696;2023-07-31T07:57:16;17.58;83.24
73141;SHT31;61339;50.558;4.696;2023-07-31T07:59:41;17.48;84.42
73141;SHT31;61339;50.558;4.696;2023-07-31T08:02:07;17.30;85.20
73141;SHT31;61339;50.558;4.696;2023-07-31T08:04:32;17.23;85.91
73141;SHT31;61339;50.558;4.696;2023-07-31T08:06:58;17.17;87.00
73141;SHT31;61339;50.558;4.696;2023-07-31T08:09:23;17.08;88.16
73141;SHT31;61339;50.558;4.696;2023-07-31T08:11:48;16.98;89.36
73141;SHT31;61339;50.558;4.696;2023-07-31T08:14:14;16.90;90.52
73141;SHT31;61339;50.558;4.696;2023-07-31T08:16:39;16.79;91.09
73141;SHT31;61339;50.558;4.696;2023-07-31T08:19:05;16.72;91.94
73141;SHT31;61339;50.558;4.696;2023-07-31T08:21:31;16.69;92.48
73141;SHT31;61339;50.558;4.696;2023-07-31T08:23:57;16.61;92.54
73141;SHT31;61339;50.558;4.696;2023-07-31T08:26:23;16.64;92.94
73141;SHT31;61339;50.558;4.696;2023-07-31T08:28:48;16.67;93.21
73141;SHT31;61339;50.558;4.696;2023-07-31T08:31:14;16.64;92.85
73141;SHT31;61339;50.558;4.696;2023-07-31T08:33:39;16.61;93.44
73141;SHT31;61339;50.558;4.696;2023-07-31T08:36:08;16.64;93.79
73141;SHT31;61339;50.558;4.696;2023-07-31T08:38:33;16.78;93.35
73141;SHT31;61339;50.558;4.696;2023-07-31T08:40:59;16.82;93.47
73141;SHT31;61339;50.558;4.696;2023-07-31T08:43:26;16.67;93.59
73141;SHT31;61339;50.558;4.696;2023-07-31T08:45:51;16.67;94.13
73141;SHT31;61339;50.558;4.696;2023-07-31T08:48:17;16.69;94.22
73141;SHT31;61339;50.558;4.696;2023-07-31T08:50:43;16.59;94.32
73141;SHT31;61339;50.558;4.696;2023-07-31T08:53:09;16.67;94.60
73141;SHT31;61339;50.558;4.696;2023-07-31T08:55:35;16.73;94.92
73141;SHT31;61339;50.558;4.696;2023-07-31T08:58:03;16.80;94.79
73141;SHT31;61339;50.558;4.696;2023-07-31T09:00:29;16.90;94.28
73141;SHT31;61339;50.558;4.696;2023-07-31T09:03:00;16.80;94.31
73141;SHT31;61339;50.558;4.696;2023-07-31T09:05:29;16.73;94.98
73141;SHT31;61339;50.558;4.696;2023-07-31T09:07:56;16.71;94.91
73141;SHT31;61339;50.558;4.696;2023-07-31T09:10:21;16.69;95.08
73141;SHT31;61339;50.558;4.696;2023-07-31T09:12:48;16.64;95.23
73141;SHT31;61339;50.558;4.696;2023-07-31T09:15:14;16.65;95.05
73141;SHT31;61339;50.558;4.696;2023-07-31T09:17:40;16.69;95.56
73141;SHT31;61339;50.558;4.696;2023-07-31T09:20:16;16.62;95.19
73141;SHT31;61339;50.558;4.696;2023-07-31T09:22:43;16.62;95.44
73141;SHT31;61339;50.558;4.696;2023-07-31T09:25:22;16.71;95.35
73141;SHT31;61339;50.558;4.696;2023-07-31T09:27:58;16.80;94.86
73141;SHT31;61339;50.558;4.696;2023-07-31T09:30:24;16.86;94.22
73141;SHT31;61339;50.558;4.696;2023-07-31T09:33:09;17.00;94.37
73141;SHT31;61339;50.558;4.696;2023-07-31T09:35:35;17.06;94.24
73141;SHT31;61339;50.558;4.696;2023-07-31T09:38:05;17.22;94.19
73141;SHT31;61339;50.558;4.696;2023-07-31T09:40:35;17.26;94.32
73141;SHT31;61339;50.558;4.696;2023-07-31T09:43:04;17.23;94.18
73141;SHT31;61339;50.558;4.696;2023-07-31T09:45:34;17.31;94.46
73141;SHT31;61339;50.558;4.696;2023-07-31T09:48:01;17.34;93.58
73141;SHT31;61339;50.558;4.696;2023-07-31T09:50:27;17.37;93.47
73141;SHT31;61339;50.558;4.696;2023-07-31T09:52:53;17.39;92.79
73141;SHT31;61339;50.558;4.696;2023-07-31T09:55:19;17.47;92.73
73141;SHT31;61339;50.558;4.696;2023-07-31T09:57:48;17.58;91.73
73141;SHT31;61339;50.558;4.696;2023-07-31T10:00:16;17.66;91.37
73141;SHT31;61339;50.558;4.696;2023-07-31T10:02:45;17.67;91.72
73141;SHT31;61339;50.558;4.696;2023-07-31T10:05:15;17.84;90.96
73141;SHT31;61339;50.558;4.696;2023-07-31T10:07:52;17.88;90.69
73141;SHT31;61339;50.558;4.696;2023-07-31T10:10:20;17.97;89.92
73141;SHT31;61339;50.558;4.696;2023-07-31T10:12:46;18.10;90.61
73141;SHT31;61339;50.558;4.696;2023-07-31T10:15:14;18.19;89.68
73141;SHT31;61339;50.558;4.696;2023-07-31T10:17:40;18.29;88.74
73141;SHT31;61339;50.558;4.696;2023-07-31T10:20:06;18.24;88.39
73141;SHT31;61339;50.558;4.696;2023-07-31T10:22:32;18.24;87.19
73141;SHT31;61339;50.558;4.696;2023-07-31T10:24:59;18.33;86.62
73141;SHT31;61339;50.558;4.696;2023-07-31T10:27:25;18.37;85.98
73141;SHT31;61339;50.558;4.696;2023-07-31T10:29:52;18.35;86.95
73141;SHT31;61339;50.558;4.696;2023-07-31T10:32:19;18.35;86.32
73141;SHT31;61339;50.558;4.696;2023-07-31T10:34:45;18.36;86.22
73141;SHT31;61339;50.558;4.696;2023-07-31T10:37:25;18.29;85.48
73141;SHT31;61339;50.558;4.696;2023-07-31T10:40:04;18.26;85.76
73141;SHT31;61339;50.558;4.696;2023-07-31T10:42:35;18.25;86.14
73141;SHT31;61339;50.558;4.696;2023-07-31T10:45:06;18.28;85.46
73141;SHT31;61339;50.558;4.696;2023-07-31T10:48:01;18.29;86.32
73141;SHT31;61339;50.558;4.696;2023-07-31T10:50:28;18.32;85.28
73141;SHT31;61339;50.558;4.696;2023-07-31T10:52:55;18.29;84.46
73141;SHT31;61339;50.558;4.696;2023-07-31T10:57:49;18.36;83.34
73141;SHT31;61339;50.558;4.696;2023-07-31T11:00:25;18.46;83.93
73141;SHT31;61339;50.558;4.696;2023-07-31T11:03:01;18.55;83.64
73141;SHT31;61339;50.558;4.696;2023-07-31T11:05:53;18.70;84.00
73141;SHT31;61339;50.558;4.696;2023-07-31T11:08:26;18.80;82.30
73141;SHT31;61339;50.558;4.696;2023-07-31T11:11:05;18.80;83.00
73141;SHT31;61339;50.558;4.696;2023-07-31T11:13:39;18.77;83.00
73141;SHT31;61339;50.558;4.696;2023-07-31T11:16:04;18.80;82.40
73141;SHT31;61339;50.558;4.696;2023-07-31T11:18:30;18.97;81.63
73141;SHT31;61339;50.558;4.696;2023-07-31T11:20:55;19.03;80.98
73141;SHT31;61339;50.558;4.696;2023-07-31T11:23:22;19.00;80.79
73141;SHT31;61339;50.558;4.696;2023-07-31T11:25:47;19.03;81.32
73141;SHT31;61339;50.558;4.696;2023-07-31T11:28:14;19.14;81.17
73141;SHT31;61339;50.558;4.696;2023-07-31T11:30:42;19.19;80.77
73141;SHT31;61339;50.558;4.696;2023-07-31T11:33:10;19.34;80.10
73141;SHT31;61339;50.558;4.696;2023-07-31T11:35:41;19.44;80.00
73141;SHT31;61339;50.558;4.696;2023-07-31T11:38:08;19.61;78.82
73141;SHT31;61339;50.558;4.696;2023-07-31T11:40:44;19.62;78.96
73141;SHT31;61339;50.558;4.696;2023-07-31T11:43:10;19.65;79.12
73141;SHT31;61339;50.558;4.696;2023-07-31T11:45:37;19.85;78.88
73141;SHT31;61339;50.558;4.696;2023-07-31T11:48:04;19.86;78.31
73141;SHT31;61339;50.558;4.696;2023-07-31T11:50:33;19.73;78.96
73141;SHT31;61339;50.558;4.696;2023-07-31T11:53:00;19.63;78.82
73141;SHT31;61339;50.558;4.696;2023-07-31T11:55:28;19.75;79.16
73141;SHT31;61339;50.558;4.696;2023-07-31T11:57:57;19.83;78.50
73141;SHT31;61339;50.558;4.696;2023-07-31T12:00:24;19.98;77.94
73141;SHT31;61339;50.558;4.696;2023-07-31T12:02:50;20.28;77.63
73141;SHT31;61339;50.558;4.696;2023-07-31T12:05:16;20.61;77.09
73141;SHT31;61339;50.558;4.696;2023-07-31T12:07:52;20.63;75.81
73141;SHT31;61339;50.558;4.696;2023-07-31T12:15:42;20.57;76.28
73141;SHT31;61339;50.558;4.696;2023-07-31T12:18:11;20.38;75.22
73141;SHT31;61339;50.558;4.696;2023-07-31T12:20:58;20.37;75.96
73141;SHT31;61339;50.558;4.696;2023-07-31T12:23:29;20.51;74.89
73141;SHT31;61339;50.558;4.696;2023-07-31T12:28:27;20.14;75.93
73141;SHT31;61339;50.558;4.696;2023-07-31T12:30:57;20.01;76.44
73141;SHT31;61339;50.558;4.696;2023-07-31T12:33:23;20.06;76.68
73141;SHT31;61339;50.558;4.696;2023-07-31T12:35:48;19.94;77.09
73141;SHT31;61339;50.558;4.696;2023-07-31T12:38:14;19.83;77.59
73141;SHT31;61339;50.558;4.696;2023-07-31T12:40:41;19.75;77.78
73141;SHT31;61339;50.558;4.696;2023-07-31T12:43:07;19.65;78.26
73141;SHT31;61339;50.558;4.696;2023-07-31T12:45:33;19.59;78.70
73141;SHT31;61339;50.558;4.696;2023-07-31T12:47:59;19.61;78.99
73141;SHT31;61339;50.558;4.696;2023-07-31T12:50:25;19.51;78.53
73141;SHT31;61339;50.558;4.696;2023-07-31T12:52:51;19.51;78.70
73141;SHT31;61339;50.558;4.696;2023-07-31T12:55:16;19.62;78.37
73141;SHT31;61339;50.558;4.696;2023-07-31T12:57:43;19.79;77.90
73141;SHT31;61339;50.558;4.696;2023-07-31T13:00:09;20.21;76.35
73141;SHT31;61339;50.558;4.696;2023-07-31T13:02:34;20.51;75.64
73141;SHT31;61339;50.558;4.696;2023-07-31T13:05:00;20.37;75.96
73141;SHT31;61339;50.558;4.696;2023-07-31T13:07:26;20.27;76.84
73141;SHT31;61339;50.558;4.696;2023-07-31T13:09:51;20.16;77.25
73141;SHT31;61339;50.558;4.696;2023-07-31T13:12:17;20.04;77.68
73141;SHT31;61339;50.558;4.696;2023-07-31T13:14:42;20.03;78.19
73141;SHT31;61339;50.558;4.696;2023-07-31T13:17:08;19.94;78.91
73141;SHT31;61339;50.558;4.696;2023-07-31T13:19:33;19.85;80.19
73141;SHT31;61339;50.558;4.696;2023-07-31T13:21:59;19.61;81.85
73141;SHT31;61339;50.558;4.696;2023-07-31T13:24:24;19.42;83.34
73141;SHT31;61339;50.558;4.696;2023-07-31T13:26:49;19.35;84.27
73141;SHT31;61339;50.558;4.696;2023-07-31T13:29:15;19.24;84.71
73141;SHT31;61339;50.558;4.696;2023-07-31T13:31:40;19.10;85.02
73141;SHT31;61339;50.558;4.696;2023-07-31T13:34:06;18.97;85.32
73141;SHT31;61339;50.558;4.696;2023-07-31T13:36:31;18.81;86.22
73141;SHT31;61339;50.558;4.696;2023-07-31T13:38:59;18.71;87.00
73141;SHT31;61339;50.558;4.696;2023-07-31T13:41:24;18.53;89.44
73141;SHT31;61339;50.558;4.696;2023-07-31T13:43:49;18.42;90.61
73141;SHT31;61339;50.558;4.696;2023-07-31T13:46:15;18.30;91.66
73141;SHT31;61339;50.558;4.696;2023-07-31T13:48:40;18.18;91.99
73141;SHT31;61339;50.558;4.696;2023-07-31T13:51:06;18.10;91.80
73141;SHT31;61339;50.558;4.696;2023-07-31T13:53:31;18.10;92.65
73141;SHT31;61339;50.558;4.696;2023-07-31T13:55:57;18.02;91.97
73141;SHT31;61339;50.558;4.696;2023-07-31T13:58:22;17.99;92.98
73141;SHT31;61339;50.558;4.696;2023-07-31T14:00:48;17.97;93.26
73141;SHT31;61339;50.558;4.696;2023-07-31T14:03:13;17.87;93.45
73141;SHT31;61339;50.558;4.696;2023-07-31T14:05:39;17.81;94.22
73141;SHT31;61339;50.558;4.696;2023-07-31T14:08:04;17.71;94.46
73141;SHT31;61339;50.558;4.696;2023-07-31T14:10:30;17.66;94.95
73141;SHT31;61339;50.558;4.696;2023-07-31T14:12:55;17.63;95.38
73141;SHT31;61339;50.558;4.696;2023-07-31T14:15:20;17.66;95.90
73141;SHT31;61339;50.558;4.696;2023-07-31T14:17:46;17.67;96.08
73141;SHT31;61339;50.558;4.696;2023-07-31T14:20:11;17.66;95.93
73141;SHT31;61339;50.558;4.696;2023-07-31T14:22:37;17.64;96.47
73141;SHT31;61339;50.558;4.696;2023-07-31T14:25:03;17.58;96.20
73141;SHT31;61339;50.558;4.696;2023-07-31T14:27:28;17.57;96.46
73141;SHT31;61339;50.558;4.696;2023-07-31T14:29:54;17.61;96.71
73141;SHT31;61339;50.558;4.696;2023-07-31T14:32:21;17.66;96.31
73141;SHT31;61339;50.558;4.696;2023-07-31T14:34:48;17.74;96.61
73141;SHT31;61339;50.558;4.696;2023-07-31T14:37:14;17.85;96.18
73141;SHT31;61339;50.558;4.696;2023-07-31T14:39:39;17.97;96.10
73141;SHT31;61339;50.558;4.696;2023-07-31T14:42:05;17.98;95.68
73141;SHT31;61339;50.558;4.696;2023-07-31T14:44:30;17.97;95.64
73141;SHT31;61339;50.558;4.696;2023-07-31T14:46:56;17.94;95.79
73141;SHT31;61339;50.558;4.696;2023-07-31T14:49:21;17.91;96.03
73141;SHT31;61339;50.558;4.696;2023-07-31T14:51:47;17.84;96.01
73141;SHT31;61339;50.558;4.696;2023-07-31T14:54:12;17.78;96.11
73141;SHT31;61339;50.558;4.696;2023-07-31T14:56:38;17.73;96.30
73141;SHT31;61339;50.558;4.696;2023-07-31T14:59:03;17.68;96.30
73141;SHT31;61339;50.558;4.696;2023-07-31T15:01:28;17.67;96.51
73141;SHT31;61339;50.558;4.696;2023-07-31T15:03:54;17.68;96.35
73141;SHT31;61339;50.558;4.696;2023-07-31T15:06:19;17.61;96.60
73141;SHT31;61339;50.558;4.696;2023-07-31T15:08:45;17.60;96.54
73141;SHT31;61339;50.558;4.696;2023-07-31T15:11:10;17.60;97.03
73141;SHT31;61339;50.558;4.696;2023-07-31T15:13:35;17.54;96.77
73141;SHT31;61339;50.558;4.696;2023-07-31T15:16:01;17.55;97.01
73141;SHT31;61339;50.558;4.696;2023-07-31T15:18:26;17.48;96.89
73141;SHT31;61339;50.558;4.696;2023-07-31T15:20:53;17.54;97.14
73141;SHT31;61339;50.558;4.696;2023-07-31T15:23:18;17.48;96.88
73141;SHT31;61339;50.558;4.696;2023-07-31T15:25:44;17.46;97.03
73141;SHT31;61339;50.558;4.696;2023-07-31T15:28:09;17.44;97.14
73141;SHT31;61339;50.558;4.696;2023-07-31T15:30:36;17.41;97.03
73141;SHT31;61339;50.558;4.696;2023-07-31T15:33:02;17.37;97.22
73141;SHT31;61339;50.558;4.696;2023-07-31T15:35:27;17.33;97.12
73141;SHT31;61339;50.558;4.696;2023-07-31T15:37:53;17.30;97.48
73141;SHT31;61339;50.558;4.696;2023-07-31T16:05:13;17.27;97.35
73141;SHT31;61339;50.558;4.696;2023-07-31T16:07:39;17.24;97.28